Tampa — WDB4806 — position and weather

sailwx.info

Track history (hours):
 
Tides and Currents Weather Stations Pressure Air Temp Water Temp Dewpoint Dewpoint Depression Visibility Wind Speed Wind Dir Waves Ship Positions

Tampa

Owner: Tampa Pilots LLC, Tampa, FL. More information available from US FCC via Universal Licensing System and Coast Guard Vessel Documentation Center.

Last reported at 2014-Nov-28 18:33 UTC. Time now 2014-Nov-28 19:22 UTC.
Position N 27°36' W 082°54'.

Length 19 m; draft 1.5 m.

Type: Pilot. MMSI: 366902570.

Date/timePositionNaut miles runAvg speedWind from/ knotsBaromVisibWave heightAir tempDewpointWater temp
2014-Nov-28 18:33N 27°36' W 082°54'8 7.6
2014-Nov-28 17:31N 27°35' W 082°46'2 2.6
2014-Nov-28 16:34N 27°37' W 082°44'4 4.5
2014-Nov-28 15:34N 27°37' W 082°49'3 3.0
2014-Nov-28 14:33N 27°35' W 082°46'0 0.0
2014-Nov-28 13:32N 27°35' W 082°46'0 0.2
2014-Nov-28 12:33N 27°35' W 082°45'3 3.0
2014-Nov-28 11:33N 27°37' W 082°48'3 2.7
2014-Nov-28 10:31N 27°35' W 082°46'0 0.0
2014-Nov-28 09:31N 27°35' W 082°46'0 0.0
2014-Nov-28 08:31N 27°35' W 082°46'0 0.0
2014-Nov-28 07:31N 27°35' W 082°46'0 0.0
2014-Nov-28 06:28N 27°35' W 082°46'0 0.0
2014-Nov-28 05:31N 27°35' W 082°46'0 0.0
2014-Nov-28 04:31N 27°35' W 082°46'0 0.0
2014-Nov-28 02:31N 27°35' W 082°46'0 0.0
2014-Nov-28 01:33N 27°35' W 082°46'1 1.3
2014-Nov-28 00:34N 27°36' W 082°46'2 1.9
2014-Nov-27 23:33N 27°37' W 082°44'8 7.6
2014-Nov-27 22:33N 27°36' W 082°52'6 5.8
2014-Nov-27 21:33N 27°35' W 082°46'0 0.0
2014-Nov-27 20:33N 27°35' W 082°46'0 0.0
2014-Nov-27 19:33N 27°35' W 082°46'0 0.0
2014-Nov-27 18:33N 27°35' W 082°46'0 0.0
2014-Nov-27 17:33N 27°35' W 082°46'0 0.0
2014-Nov-27 16:27N 27°35' W 082°46'0 0.0
2014-Nov-27 15:33N 27°35' W 082°46'0 0.0
2014-Nov-27 14:33N 27°35' W 082°46'0 0.0
2014-Nov-27 12:33N 27°35' W 082°46'2 2.4
2014-Nov-27 11:33N 27°37' W 082°44'2 2.4
2014-Nov-27 10:33N 27°35' W 082°46'0 0.0
2014-Nov-27 09:33N 27°35' W 082°46'5 4.8
2014-Nov-27 08:33N 27°36' W 082°51'6 5.7
2014-Nov-27 07:33N 27°36' W 082°44'2 1.7
2014-Nov-27 06:33N 27°35' W 082°46'0 0.0
2014-Nov-27 05:33N 27°35' W 082°46'0 0.0
2014-Nov-27 04:33N 27°35' W 082°46'0 0.0
2014-Nov-27 03:33N 27°35' W 082°46'0 0.0
2014-Nov-27 02:33N 27°35' W 082°46'0 0.1
2014-Nov-27 01:33N 27°35' W 082°45'2 1.6
2014-Nov-27 00:34N 27°37' W 082°46'3 2.7
2014-Nov-26 23:30N 27°37' W 082°43'7 6.4
2014-Nov-26 22:28N 27°36' W 082°51'6 7.1
2014-Nov-26 21:33N 27°37' W 082°44'2 1.9
2014-Nov-26 20:33N 27°36' W 082°45'1 0.5
2014-Nov-26 19:13N 27°35' W 082°46'0 0.0
2014-Nov-26 18:34N 27°35' W 082°46'2 1.8
2014-Nov-26 17:30N 27°36' W 082°44'3 3.5
2014-Nov-26 16:33N 27°37' W 082°48'4 4.1
2014-Nov-26 15:33N 27°36' W 082°52'6 5.4
2014-Nov-26 14:26N 27°35' W 082°46'0 0.0
2014-Nov-26 13:32N 27°35' W 082°46'0 0.0
2014-Nov-26 12:32N 27°35' W 082°46'2 1.8
2014-Nov-26 11:33N 27°37' W 082°47'1 1.5
2014-Nov-26 10:33N 27°36' W 082°45'1 1.4
2014-Nov-26 09:33N 27°37' W 082°44'2 2.5
2014-Nov-26 08:33N 27°35' W 082°46'0 0.0
2014-Nov-26 07:33N 27°35' W 082°46'0 0.0
2014-Nov-26 06:33N 27°35' W 082°46'0 0.0
2014-Nov-26 05:33N 27°35' W 082°46'0 0.0
2014-Nov-26 04:33N 27°35' W 082°46'0 0.2
2014-Nov-26 03:33N 27°35' W 082°45'1 0.5
2014-Nov-26 01:33N 27°36' W 082°45'1 1.2
2014-Nov-26 00:32N 27°35' W 082°46'2 2.5
2014-Nov-25 23:33N 27°37' W 082°44'1211.8
2014-Nov-25 22:31N 27°36' W 082°57'8 6.3
2014-Nov-25 21:19N 27°36' W 082°49'3 3.4
2014-Nov-25 20:24N 27°35' W 082°46'0 0.0
2014-Nov-25 19:24N 27°35' W 082°46'0 0.0
2014-Nov-25 18:24N 27°35' W 082°46'0 0.0
2014-Nov-25 17:24N 27°35' W 082°46'0 0.0
2014-Nov-25 16:33N 27°35' W 082°46'0 0.0
2014-Nov-25 15:33N 27°35' W 082°46'0 0.0
2014-Nov-25 14:33N 27°35' W 082°46'0 0.0
2014-Nov-25 13:33N 27°35' W 082°46'2 1.6
2014-Nov-25 12:34N 27°36' W 082°44'1 0.9
2014-Nov-25 11:33N 27°37' W 082°44'6 5.7
2014-Nov-25 10:33N 27°36' W 082°50'4 4.0
2014-Nov-25 09:32N 27°35' W 082°46'0 0.0
2014-Nov-25 08:32N 27°35' W 082°46'0 0.0
2014-Nov-25 07:32N 27°35' W 082°46'0 0.0
2014-Nov-25 06:32N 27°35' W 082°46'0 0.0
2014-Nov-25 05:32N 27°35' W 082°46'0 0.0
2014-Nov-25 04:32N 27°35' W 082°46'0 0.0
2014-Nov-25 03:32N 27°35' W 082°46'0 0.0
2014-Nov-25 02:26N 27°35' W 082°46'0 0.0
2014-Nov-25 01:32N 27°35' W 082°46'0 0.0
2014-Nov-25 00:30N 27°35' W 082°46'0 0.0
2014-Nov-24 23:24N 27°35' W 082°46'0 0.0
2014-Nov-24 22:24N 27°35' W 082°46'2 3.0
2014-Nov-24 21:34N 27°37' W 082°44'3 3.4
2014-Nov-24 20:33N 27°37' W 082°47'3 3.3
2014-Nov-24 19:33N 27°37' W 082°44'5 4.8
2014-Nov-24 18:34N 27°37' W 082°49'4 3.5
2014-Nov-24 17:34N 27°35' W 082°45'9 8.7
2014-Nov-24 16:30N 27°36' W 082°56'9 9.7
2014-Nov-24 15:34N 27°36' W 082°45'1 0.6
2014-Nov-24 14:33N 27°35' W 082°46'0 0.0
2014-Nov-24 13:33N 27°35' W 082°46'0 0.0
2014-Nov-24 12:33N 27°35' W 082°46'2 2.5
2014-Nov-24 11:32N 27°37' W 082°44'2 2.4
2014-Nov-24 10:31N 27°35' W 082°46'6 5.7
2014-Nov-24 09:33N 27°36' W 082°52'6 5.5
2014-Nov-24 08:33N 27°35' W 082°46'0 0.0
2014-Nov-24 07:33N 27°35' W 082°46'3 3.0
2014-Nov-24 06:33N 27°36' W 082°49'2 2.4
2014-Nov-24 05:33N 27°37' W 082°46'1 1.3
2014-Nov-24 04:28N 27°35' W 082°46'0 0.0
2014-Nov-24 03:31N 27°35' W 082°46'2 1.6
2014-Nov-24 02:33N 27°36' W 082°44'2 1.6
2014-Nov-24 01:33N 27°35' W 082°46'0 0.0
2014-Nov-24 00:33N 27°35' W 082°46'2 1.6
2014-Nov-23 23:34N 27°36' W 082°44'2 1.5
2014-Nov-23 22:32N 27°35' W 082°46'0 0.0
2014-Nov-23 21:32N 27°35' W 082°46'0 0.0
2014-Nov-23 20:32N 27°35' W 082°46'0 0.0
2014-Nov-23 19:26N 27°35' W 082°46'0 0.0
2014-Nov-23 18:29N 27°35' W 082°46'0 0.0
2014-Nov-23 17:17N 27°35' W 082°46'6 8.6
2014-Nov-23 16:33N 27°36' W 082°52'6 5.9
2014-Nov-23 15:30N 27°35' W 082°46'0 0.0
2014-Nov-23 14:32N 27°35' W 082°46'6 5.9
2014-Nov-23 13:33N 27°36' W 082°52'6 6.1
2014-Nov-23 12:33N 27°36' W 082°45'1 1.4
2014-Nov-23 11:33N 27°37' W 082°44'2 2.5
2014-Nov-23 10:33N 27°35' W 082°46'7 6.9
2014-Nov-23 09:33N 27°36' W 082°53'9 8.6
2014-Nov-23 08:34N 27°37' W 082°44'1110.8
2014-Nov-23 07:34N 27°36' W 082°56'9 9.0
2014-Nov-23 06:33N 27°35' W 082°46'0 0.0
2014-Nov-23 05:33N 27°35' W 082°46'9 8.0
2014-Nov-23 04:29N 27°36' W 082°55'1 0.6
2014-Nov-23 03:33N 27°36' W 082°55'9 8.6
2014-Nov-23 02:33N 27°35' W 082°45'0 0.1
2014-Nov-23 01:34N 27°35' W 082°46'8 7.9
2014-Nov-23 00:33N 27°36' W 082°54'10 9.5
2014-Nov-22 23:32N 27°37' W 082°44'10 9.9
2014-Nov-22 22:33N 27°36' W 082°54'10 9.7
2014-Nov-22 21:33N 27°37' W 082°44'2 2.4
2014-Nov-22 20:32N 27°35' W 082°46'0 0.0
2014-Nov-22 19:17N 27°35' W 082°46'0 0.0
2014-Nov-22 18:11N 27°35' W 082°46'2 1.3
2014-Nov-22 16:32N 27°37' W 082°47'2 2.1
2014-Nov-22 15:31N 27°36' W 082°45'1 0.6
2014-Nov-22 14:32N 27°35' W 082°46'0 0.2
2014-Nov-22 12:34N 27°35' W 082°45'4 3.3
2014-Nov-22 11:25N 27°36' W 082°49'4 4.1
2014-Nov-22 10:32N 27°35' W 082°46'0 0.0
2014-Nov-22 09:33N 27°35' W 082°46'7 6.7
2014-Nov-22 08:33N 27°36' W 082°53'8 8.3
2014-Nov-22 07:33N 27°37' W 082°44'6 6.3
2014-Nov-22 06:33N 27°36' W 082°51'5 3.8
2014-Nov-22 05:15N 27°35' W 082°46'0 0.0
2014-Nov-22 04:30N 27°35' W 082°46'3 3.4
2014-Nov-22 03:33N 27°36' W 082°49'5 4.8
2014-Nov-22 02:33N 27°37' W 082°44'2 2.4
2014-Nov-22 01:31N 27°35' W 082°46'0 0.0
2014-Nov-22 00:07N 27°35' W 082°46'0 0.0
2014-Nov-21 23:28N 27°35' W 082°46'0 0.0
2014-Nov-21 22:22N 27°35' W 082°46'3 4.2
2014-Nov-21 21:32N 27°36' W 082°49'3 2.7
2014-Nov-21 20:33N 27°36' W 082°52'8 7.6
2014-Nov-21 19:33N 27°37' W 082°44'4 3.9
2014-Nov-21 18:33N 27°37' W 082°48'3 2.7
2014-Nov-21 17:33N 27°35' W 082°46'0 0.4
2014-Nov-21 16:33N 27°35' W 082°45'0 0.4
2014-Nov-21 15:33N 27°35' W 082°46'0 0.0
2014-Nov-21 14:33N 27°35' W 082°46'0 0.0
2014-Nov-21 13:33N 27°35' W 082°46'0 0.0
2014-Nov-21 12:33N 27°35' W 082°46'2 2.5
2014-Nov-21 11:33N 27°37' W 082°44'2 2.4
2014-Nov-21 10:32N 27°35' W 082°46'0 0.0
2014-Nov-21 09:32N 27°35' W 082°46'0 0.0
2014-Nov-21 08:32N 27°35' W 082°46'0 0.0
2014-Nov-21 07:32N 27°35' W 082°46'0 0.0
2014-Nov-21 05:32N 27°35' W 082°46'0 0.0
2014-Nov-21 04:32N 27°35' W 082°46'0 0.0
2014-Nov-21 03:32N 27°35' W 082°46'2 1.8
2014-Nov-21 02:33N 27°37' W 082°47'3 2.7
2014-Nov-21 01:33N 27°37' W 082°44'8 8.2
2014-Nov-21 00:33N 27°36' W 082°53'7 6.5
2014-Nov-20 23:33N 27°35' W 082°46'0 0.0
2014-Nov-20 22:32N 27°35' W 082°46'0 0.0
2014-Nov-20 21:32N 27°35' W 082°46'2 2.5
2014-Nov-20 20:33N 27°37' W 082°44'2 2.4
2014-Nov-20 19:32N 27°35' W 082°46'0 0.0
2014-Nov-20 18:32N 27°35' W 082°46'0 0.0
2014-Nov-20 17:34N 27°35' W 082°46'0 0.0
2014-Nov-20 16:34N 27°35' W 082°46'0 0.0
2014-Nov-20 15:33N 27°35' W 082°46'0 0.0
2014-Nov-20 14:33N 27°35' W 082°46'0 0.0
2014-Nov-20 13:33N 27°35' W 082°46'0 0.0
2014-Nov-20 12:20N 27°35' W 082°46'2 3.2
2014-Nov-20 11:33N 27°37' W 082°44'8 8.0
2014-Nov-20 10:33N 27°36' W 082°53'6 6.4
2014-Nov-20 09:33N 27°35' W 082°46'0 0.0
2014-Nov-20 08:33N 27°35' W 082°46'0 0.0
2014-Nov-20 07:33N 27°35' W 082°46'0 0.0
2014-Nov-20 06:33N 27°35' W 082°46'0 0.0
2014-Nov-20 05:33N 27°35' W 082°46'0 0.0
2014-Nov-20 04:33N 27°35' W 082°46'0 0.0
2014-Nov-20 03:27N 27°35' W 082°46'4 4.2
2014-Nov-20 02:33N 27°36' W 082°50'4 2.9
2014-Nov-20 01:15N 27°35' W 082°46'0 0.0
2014-Nov-20 00:33N 27°35' W 082°46'2 2.5
2014-Nov-19 23:33N 27°37' W 082°44'2 2.4
2014-Nov-19 22:32N 27°35' W 082°46'2 2.4
2014-Nov-19 21:32N 27°37' W 082°48'6 4.8
2014-Nov-19 20:19N 27°37' W 082°54'1 1.8
2014-Nov-19 19:33N 27°36' W 082°56'9 8.5
2014-Nov-19 18:33N 27°37' W 082°46'5 5.2
2014-Nov-19 17:34N 27°36' W 082°52'7 7.2
2014-Nov-19 16:33N 27°37' W 082°44'2 2.2
2014-Nov-19 15:26N 27°35' W 082°46'0 0.0
2014-Nov-19 14:32N 27°35' W 082°46'0 0.0
2014-Nov-19 13:26N 27°35' W 082°46'0 0.0
2014-Nov-19 12:20N 27°35' W 082°46'2 3.2
2014-Nov-19 11:34N 27°37' W 082°44'2 1.8
2014-Nov-19 10:33N 27°36' W 082°45'1 0.6
2014-Nov-19 09:25N 27°35' W 082°46'0 0.0
2014-Nov-19 08:31N 27°35' W 082°46'0 0.0
2014-Nov-19 07:31N 27°35' W 082°46'7 7.7
2014-Nov-19 06:33N 27°36' W 082°54'9 9.2
2014-Nov-19 05:33N 27°37' W 082°44'2 2.5
2014-Nov-19 04:33N 27°35' W 082°46'0 0.0
2014-Nov-19 03:33N 27°35' W 082°46'0 0.0
2014-Nov-19 01:24N 27°35' W 082°46'3 3.8
2014-Nov-19 00:34N 27°36' W 082°49'4 3.7
2014-Nov-18 23:33N 27°36' W 082°45'0 0.5
2014-Nov-18 22:33N 27°36' W 082°44'1 1.2
2014-Nov-18 21:32N 27°35' W 082°46'0 0.0
2014-Nov-18 20:32N 27°35' W 082°46'0 0.0
2014-Nov-18 19:32N 27°35' W 082°46'  
Track history (hours):
 
Tides and Currents Weather Stations Pressure Air Temp Water Temp Dewpoint Dewpoint Depression Visibility Wind Speed Wind Dir Waves Ship Positions

Tampa

Owner: Tampa Pilots LLC, Tampa, FL. More information available from US FCC via Universal Licensing System and Coast Guard Vessel Documentation Center.

Last reported at 2014-Nov-28 18:33 UTC. Time now 2014-Nov-28 19:22 UTC.
Position N 27°36' W 082°54'.

Length 19 m; draft 1.5 m.

Type: Pilot. MMSI: 366902570.

Date/timePositionNaut miles runAvg speedWind from/ knotsBaromVisibWave heightAir tempDewpointWater temp
2014-Nov-28 18:33N 27°36' W 082°54'8 7.6
2014-Nov-28 17:31N 27°35' W 082°46'2 2.6
2014-Nov-28 16:34N 27°37' W 082°44'4 4.5
2014-Nov-28 15:34N 27°37' W 082°49'3 3.0
2014-Nov-28 14:33N 27°35' W 082°46'0 0.0
2014-Nov-28 13:32N 27°35' W 082°46'0 0.2
2014-Nov-28 12:33N 27°35' W 082°45'3 3.0
2014-Nov-28 11:33N 27°37' W 082°48'3 2.7
2014-Nov-28 10:31N 27°35' W 082°46'0 0.0
2014-Nov-28 09:31N 27°35' W 082°46'0 0.0
2014-Nov-28 08:31N 27°35' W 082°46'0 0.0
2014-Nov-28 07:31N 27°35' W 082°46'0 0.0
2014-Nov-28 06:28N 27°35' W 082°46'0 0.0
2014-Nov-28 05:31N 27°35' W 082°46'0 0.0
2014-Nov-28 04:31N 27°35' W 082°46'0 0.0
2014-Nov-28 02:31N 27°35' W 082°46'0 0.0
2014-Nov-28 01:33N 27°35' W 082°46'1 1.3
2014-Nov-28 00:34N 27°36' W 082°46'2 1.9
2014-Nov-27 23:33N 27°37' W 082°44'8 7.6
2014-Nov-27 22:33N 27°36' W 082°52'6 5.8
2014-Nov-27 21:33N 27°35' W 082°46'0 0.0
2014-Nov-27 20:33N 27°35' W 082°46'0 0.0
2014-Nov-27 19:33N 27°35' W 082°46'0 0.0
2014-Nov-27 18:33N 27°35' W 082°46'0 0.0
2014-Nov-27 17:33N 27°35' W 082°46'0 0.0
2014-Nov-27 16:27N 27°35' W 082°46'0 0.0
2014-Nov-27 15:33N 27°35' W 082°46'0 0.0
2014-Nov-27 14:33N 27°35' W 082°46'0 0.0
2014-Nov-27 12:33N 27°35' W 082°46'2 2.4
2014-Nov-27 11:33N 27°37' W 082°44'2 2.4
2014-Nov-27 10:33N 27°35' W 082°46'0 0.0
2014-Nov-27 09:33N 27°35' W 082°46'5 4.8
2014-Nov-27 08:33N 27°36' W 082°51'6 5.7
2014-Nov-27 07:33N 27°36' W 082°44'2 1.7
2014-Nov-27 06:33N 27°35' W 082°46'0 0.0
2014-Nov-27 05:33N 27°35' W 082°46'0 0.0
2014-Nov-27 04:33N 27°35' W 082°46'0 0.0
2014-Nov-27 03:33N 27°35' W 082°46'0 0.0
2014-Nov-27 02:33N 27°35' W 082°46'0 0.1
2014-Nov-27 01:33N 27°35' W 082°45'2 1.6
2014-Nov-27 00:34N 27°37' W 082°46'3 2.7
2014-Nov-26 23:30N 27°37' W 082°43'7 6.4
2014-Nov-26 22:28N 27°36' W 082°51'6 7.1
2014-Nov-26 21:33N 27°37' W 082°44'2 1.9
2014-Nov-26 20:33N 27°36' W 082°45'1 0.5
2014-Nov-26 19:13N 27°35' W 082°46'0 0.0
2014-Nov-26 18:34N 27°35' W 082°46'2 1.8
2014-Nov-26 17:30N 27°36' W 082°44'3 3.5
2014-Nov-26 16:33N 27°37' W 082°48'4 4.1
2014-Nov-26 15:33N 27°36' W 082°52'6 5.4
2014-Nov-26 14:26N 27°35' W 082°46'0 0.0
2014-Nov-26 13:32N 27°35' W 082°46'0 0.0
2014-Nov-26 12:32N 27°35' W 082°46'2 1.8
2014-Nov-26 11:33N 27°37' W 082°47'1 1.5
2014-Nov-26 10:33N 27°36' W 082°45'1 1.4
2014-Nov-26 09:33N 27°37' W 082°44'2 2.5
2014-Nov-26 08:33N 27°35' W 082°46'0 0.0
2014-Nov-26 07:33N 27°35' W 082°46'0 0.0
2014-Nov-26 06:33N 27°35' W 082°46'0 0.0
2014-Nov-26 05:33N 27°35' W 082°46'0 0.0
2014-Nov-26 04:33N 27°35' W 082°46'0 0.2
2014-Nov-26 03:33N 27°35' W 082°45'1 0.5
2014-Nov-26 01:33N 27°36' W 082°45'1 1.2
2014-Nov-26 00:32N 27°35' W 082°46'2 2.5
2014-Nov-25 23:33N 27°37' W 082°44'1211.8
2014-Nov-25 22:31N 27°36' W 082°57'8 6.3
2014-Nov-25 21:19N 27°36' W 082°49'3 3.4
2014-Nov-25 20:24N 27°35' W 082°46'0 0.0
2014-Nov-25 19:24N 27°35' W 082°46'0 0.0
2014-Nov-25 18:24N 27°35' W 082°46'0 0.0
2014-Nov-25 17:24N 27°35' W 082°46'0 0.0
2014-Nov-25 16:33N 27°35' W 082°46'0 0.0
2014-Nov-25 15:33N 27°35' W 082°46'0 0.0
2014-Nov-25 14:33N 27°35' W 082°46'0 0.0
2014-Nov-25 13:33N 27°35' W 082°46'2 1.6
2014-Nov-25 12:34N 27°36' W 082°44'1 0.9
2014-Nov-25 11:33N 27°37' W 082°44'6 5.7
2014-Nov-25 10:33N 27°36' W 082°50'4 4.0
2014-Nov-25 09:32N 27°35' W 082°46'0 0.0
2014-Nov-25 08:32N 27°35' W 082°46'0 0.0
2014-Nov-25 07:32N 27°35' W 082°46'0 0.0
2014-Nov-25 06:32N 27°35' W 082°46'0 0.0
2014-Nov-25 05:32N 27°35' W 082°46'0 0.0
2014-Nov-25 04:32N 27°35' W 082°46'0 0.0
2014-Nov-25 03:32N 27°35' W 082°46'0 0.0
2014-Nov-25 02:26N 27°35' W 082°46'0 0.0
2014-Nov-25 01:32N 27°35' W 082°46'0 0.0
2014-Nov-25 00:30N 27°35' W 082°46'0 0.0
2014-Nov-24 23:24N 27°35' W 082°46'0 0.0
2014-Nov-24 22:24N 27°35' W 082°46'2 3.0
2014-Nov-24 21:34N 27°37' W 082°44'3 3.4
2014-Nov-24 20:33N 27°37' W 082°47'3 3.3
2014-Nov-24 19:33N 27°37' W 082°44'5 4.8
2014-Nov-24 18:34N 27°37' W 082°49'4 3.5
2014-Nov-24 17:34N 27°35' W 082°45'9 8.7
2014-Nov-24 16:30N 27°36' W 082°56'9 9.7
2014-Nov-24 15:34N 27°36' W 082°45'1 0.6
2014-Nov-24 14:33N 27°35' W 082°46'0 0.0
2014-Nov-24 13:33N 27°35' W 082°46'0 0.0
2014-Nov-24 12:33N 27°35' W 082°46'2 2.5
2014-Nov-24 11:32N 27°37' W 082°44'2 2.4
2014-Nov-24 10:31N 27°35' W 082°46'6 5.7
2014-Nov-24 09:33N 27°36' W 082°52'6 5.5
2014-Nov-24 08:33N 27°35' W 082°46'0 0.0
2014-Nov-24 07:33N 27°35' W 082°46'3 3.0
2014-Nov-24 06:33N 27°36' W 082°49'2 2.4
2014-Nov-24 05:33N 27°37' W 082°46'1 1.3
2014-Nov-24 04:28N 27°35' W 082°46'0 0.0
2014-Nov-24 03:31N 27°35' W 082°46'2 1.6
2014-Nov-24 02:33N 27°36' W 082°44'2 1.6
2014-Nov-24 01:33N 27°35' W 082°46'0 0.0
2014-Nov-24 00:33N 27°35' W 082°46'2 1.6
2014-Nov-23 23:34N 27°36' W 082°44'2 1.5
2014-Nov-23 22:32N 27°35' W 082°46'0 0.0
2014-Nov-23 21:32N 27°35' W 082°46'0 0.0
2014-Nov-23 20:32N 27°35' W 082°46'0 0.0
2014-Nov-23 19:26N 27°35' W 082°46'0 0.0
2014-Nov-23 18:29N 27°35' W 082°46'0 0.0
2014-Nov-23 17:17N 27°35' W 082°46'6 8.6
2014-Nov-23 16:33N 27°36' W 082°52'6 5.9
2014-Nov-23 15:30N 27°35' W 082°46'0 0.0
2014-Nov-23 14:32N 27°35' W 082°46'6 5.9
2014-Nov-23 13:33N 27°36' W 082°52'6 6.1
2014-Nov-23 12:33N 27°36' W 082°45'1 1.4
2014-Nov-23 11:33N 27°37' W 082°44'2 2.5
2014-Nov-23 10:33N 27°35' W 082°46'7 6.9
2014-Nov-23 09:33N 27°36' W 082°53'9 8.6
2014-Nov-23 08:34N 27°37' W 082°44'1110.8
2014-Nov-23 07:34N 27°36' W 082°56'9 9.0
2014-Nov-23 06:33N 27°35' W 082°46'0 0.0
2014-Nov-23 05:33N 27°35' W 082°46'9 8.0
2014-Nov-23 04:29N 27°36' W 082°55'1 0.6
2014-Nov-23 03:33N 27°36' W 082°55'9 8.6
2014-Nov-23 02:33N 27°35' W 082°45'0 0.1
2014-Nov-23 01:34N 27°35' W 082°46'8 7.9
2014-Nov-23 00:33N 27°36' W 082°54'10 9.5
2014-Nov-22 23:32N 27°37' W 082°44'10 9.9
2014-Nov-22 22:33N 27°36' W 082°54'10 9.7
2014-Nov-22 21:33N 27°37' W 082°44'2 2.4
2014-Nov-22 20:32N 27°35' W 082°46'0 0.0
2014-Nov-22 19:17N 27°35' W 082°46'0 0.0
2014-Nov-22 18:11N 27°35' W 082°46'2 1.3
2014-Nov-22 16:32N 27°37' W 082°47'2 2.1
2014-Nov-22 15:31N 27°36' W 082°45'1 0.6
2014-Nov-22 14:32N 27°35' W 082°46'0 0.2
2014-Nov-22 12:34N 27°35' W 082°45'4 3.3
2014-Nov-22 11:25N 27°36' W 082°49'4 4.1
2014-Nov-22 10:32N 27°35' W 082°46'0 0.0
2014-Nov-22 09:33N 27°35' W 082°46'7 6.7
2014-Nov-22 08:33N 27°36' W 082°53'8 8.3
2014-Nov-22 07:33N 27°37' W 082°44'6 6.3
2014-Nov-22 06:33N 27°36' W 082°51'5 3.8
2014-Nov-22 05:15N 27°35' W 082°46'0 0.0
2014-Nov-22 04:30N 27°35' W 082°46'3 3.4
2014-Nov-22 03:33N 27°36' W 082°49'5 4.8
2014-Nov-22 02:33N 27°37' W 082°44'2 2.4
2014-Nov-22 01:31N 27°35' W 082°46'0 0.0
2014-Nov-22 00:07N 27°35' W 082°46'0 0.0
2014-Nov-21 23:28N 27°35' W 082°46'0 0.0
2014-Nov-21 22:22N 27°35' W 082°46'3 4.2
2014-Nov-21 21:32N 27°36' W 082°49'3 2.7
2014-Nov-21 20:33N 27°36' W 082°52'8 7.6
2014-Nov-21 19:33N 27°37' W 082°44'4 3.9
2014-Nov-21 18:33N 27°37' W 082°48'3 2.7
2014-Nov-21 17:33N 27°35' W 082°46'0 0.4
2014-Nov-21 16:33N 27°35' W 082°45'0 0.4
2014-Nov-21 15:33N 27°35' W 082°46'0 0.0
2014-Nov-21 14:33N 27°35' W 082°46'0 0.0
2014-Nov-21 13:33N 27°35' W 082°46'0 0.0
2014-Nov-21 12:33N 27°35' W 082°46'2 2.5
2014-Nov-21 11:33N 27°37' W 082°44'2 2.4
2014-Nov-21 10:32N 27°35' W 082°46'0 0.0
2014-Nov-21 09:32N 27°35' W 082°46'0 0.0
2014-Nov-21 08:32N 27°35' W 082°46'0 0.0
2014-Nov-21 07:32N 27°35' W 082°46'0 0.0
2014-Nov-21 05:32N 27°35' W 082°46'0 0.0
2014-Nov-21 04:32N 27°35' W 082°46'0 0.0
2014-Nov-21 03:32N 27°35' W 082°46'2 1.8
2014-Nov-21 02:33N 27°37' W 082°47'3 2.7
2014-Nov-21 01:33N 27°37' W 082°44'8 8.2
2014-Nov-21 00:33N 27°36' W 082°53'7 6.5
2014-Nov-20 23:33N 27°35' W 082°46'0 0.0
2014-Nov-20 22:32N 27°35' W 082°46'0 0.0
2014-Nov-20 21:32N 27°35' W 082°46'2 2.5
2014-Nov-20 20:33N 27°37' W 082°44'2 2.4
2014-Nov-20 19:32N 27°35' W 082°46'0 0.0
2014-Nov-20 18:32N 27°35' W 082°46'0 0.0
2014-Nov-20 17:34N 27°35' W 082°46'0 0.0
2014-Nov-20 16:34N 27°35' W 082°46'0 0.0
2014-Nov-20 15:33N 27°35' W 082°46'0 0.0
2014-Nov-20 14:33N 27°35' W 082°46'0 0.0
2014-Nov-20 13:33N 27°35' W 082°46'0 0.0
2014-Nov-20 12:20N 27°35' W 082°46'2 3.2
2014-Nov-20 11:33N 27°37' W 082°44'8 8.0
2014-Nov-20 10:33N 27°36' W 082°53'6 6.4
2014-Nov-20 09:33N 27°35' W 082°46'0 0.0
2014-Nov-20 08:33N 27°35' W 082°46'0 0.0
2014-Nov-20 07:33N 27°35' W 082°46'0 0.0
2014-Nov-20 06:33N 27°35' W 082°46'0 0.0
2014-Nov-20 05:33N 27°35' W 082°46'0 0.0
2014-Nov-20 04:33N 27°35' W 082°46'0 0.0
2014-Nov-20 03:27N 27°35' W 082°46'4 4.2
2014-Nov-20 02:33N 27°36' W 082°50'4 2.9
2014-Nov-20 01:15N 27°35' W 082°46'0 0.0
2014-Nov-20 00:33N 27°35' W 082°46'2 2.5
2014-Nov-19 23:33N 27°37' W 082°44'2 2.4
2014-Nov-19 22:32N 27°35' W 082°46'2 2.4
2014-Nov-19 21:32N 27°37' W 082°48'6 4.8
2014-Nov-19 20:19N 27°37' W 082°54'1 1.8
2014-Nov-19 19:33N 27°36' W 082°56'9 8.5
2014-Nov-19 18:33N 27°37' W 082°46'5 5.2
2014-Nov-19 17:34N 27°36' W 082°52'7 7.2
2014-Nov-19 16:33N 27°37' W 082°44'2 2.2
2014-Nov-19 15:26N 27°35' W 082°46'0 0.0
2014-Nov-19 14:32N 27°35' W 082°46'0 0.0
2014-Nov-19 13:26N 27°35' W 082°46'0 0.0
2014-Nov-19 12:20N 27°35' W 082°46'2 3.2
2014-Nov-19 11:34N 27°37' W 082°44'2 1.8
2014-Nov-19 10:33N 27°36' W 082°45'1 0.6
2014-Nov-19 09:25N 27°35' W 082°46'0 0.0
2014-Nov-19 08:31N 27°35' W 082°46'0 0.0
2014-Nov-19 07:31N 27°35' W 082°46'7 7.7
2014-Nov-19 06:33N 27°36' W 082°54'9 9.2
2014-Nov-19 05:33N 27°37' W 082°44'2 2.5
2014-Nov-19 04:33N 27°35' W 082°46'0 0.0
2014-Nov-19 03:33N 27°35' W 082°46'0 0.0
2014-Nov-19 01:24N 27°35' W 082°46'3 3.8
2014-Nov-19 00:34N 27°36' W 082°49'4 3.7
2014-Nov-18 23:33N 27°36' W 082°45'0 0.5
2014-Nov-18 22:33N 27°36' W 082°44'1 1.2
2014-Nov-18 21:32N 27°35' W 082°46'0 0.0
2014-Nov-18 20:32N 27°35' W 082°46'0 0.0
2014-Nov-18 19:32N 27°35' W 082°46'  

Dump ship's entire track history